Time;durP1;ratioP1;P1;durP2;ratioP2;P2;SDS_P1;SDS_P2;PMS_P1;PMS_P2;Temp;Humidity;BMP_temperature;BMP_pressure;BME280_temperature;BME280_humidity;BME280_pressure;Samples;Min_cycle;Max_cycle;Signal;HPM_P1;HPM_P2
2021/01/13 00:01:38;;;;;;;21.42;2.50;;;;;;;1.94;89.61;101740.56;4951866;28;20379;-73
2021/01/13 00:04:04;;;;;;;16.55;2.05;;;;;;;1.93;89.50;101738.88;4951499;28;20058;-76
2021/01/13 00:06:30;;;;;;;11.95;1.67;;;;;;;1.90;89.34;101731.94;4946832;28;20583;-76
2021/01/13 00:08:55;;;;;;;10.50;1.92;;;;;;;1.90;89.12;101725.84;4951439;28;20114;-76
2021/01/13 00:11:21;;;;;;;7.93;1.80;;;;;;;1.93;88.29;101737.06;4948203;28;20485;-75
2021/01/13 00:13:46;;;;;;;12.75;1.80;;;;;;;1.55;88.67;101679.25;4947225;28;20031;-75
2021/01/13 00:16:13;;;;;;;13.70;2.20;;;;;;;1.93;88.35;101738.88;4927027;29;20090;-76
2021/01/13 00:18:39;;;;;;;18.35;1.92;;;;;;;1.70;87.95;101693.44;4947774;28;20031;-75
2021/01/13 00:21:04;;;;;;;14.38;1.63;;;;;;;2.01;86.88;101734.06;4939395;28;20058;-75
2021/01/13 00:23:30;;;;;;;16.15;2.22;;;;;;;1.76;87.20;101693.16;4941761;28;20943;-75
2021/01/13 00:25:56;;;;;;;13.27;2.33;;;;;;;1.75;87.88;101691.44;4924546;28;20597;-75
2021/01/13 00:28:21;;;;;;;15.70;2.70;;;;;;;2.02;87.92;101735.78;4941238;28;20044;-75
2021/01/13 00:30:47;;;;;;;18.60;3.20;;;;;;;1.97;87.97;101728.09;4943412;28;20039;-75
2021/01/13 00:33:12;;;;;;;17.90;2.67;;;;;;;1.93;87.81;101726.53;4945582;28;20051;-76
2021/01/13 00:35:38;;;;;;;13.68;1.92;;;;;;;1.89;87.88;101730.28;4943844;28;20023;-76
2021/01/13 00:38:03;;;;;;;14.73;2.13;;;;;;;1.84;87.38;101741.00;4942146;28;20154;-75
2021/01/13 00:40:29;;;;;;;15.05;2.53;;;;;;;1.84;87.34;101748.06;4942913;28;20035;-75
2021/01/13 00:42:54;;;;;;;15.10;2.28;;;;;;;1.80;87.11;101744.72;4944688;28;20082;-76
2021/01/13 00:45:20;;;;;;;18.85;2.25;;;;;;;1.87;86.61;101741.78;4945725;28;20097;-76
2021/01/13 00:47:51;;;;;;;11.50;1.90;;;;;;;1.85;85.75;101718.19;4945705;28;20047;-76
2021/01/13 00:50:17;;;;;;;7.82;1.58;;;;;;;2.02;85.41;101732.31;4924893;28;20693;-76
2021/01/13 00:52:49;;;;;;;12.18;2.30;;;;;;;2.07;85.08;101722.38;4945389;28;20039;-75
2021/01/13 00:55:14;;;;;;;15.25;2.30;;;;;;;2.07;84.97;101725.00;4939352;28;20019;-76
2021/01/13 00:57:40;;;;;;;11.30;2.00;;;;;;;2.05;86.14;101729.50;4929838;29;20038;-75
2021/01/13 01:00:06;;;;;;;14.43;2.13;;;;;;;1.98;86.44;101727.19;4944879;28;20046;-75
2021/01/13 01:02:32;;;;;;;14.38;2.47;;;;;;;1.94;86.88;101725.63;4945018;28;20031;-72
2021/01/13 01:04:57;;;;;;;14.25;1.67;;;;;;;1.89;86.17;101717.13;4960632;28;20509;-76
2021/01/13 01:07:22;;;;;;;12.73;2.13;;;;;;;1.86;86.28;101713.75;4942580;28;20038;-76
2021/01/13 01:09:48;;;;;;;12.63;1.92;;;;;;;1.81;86.51;101708.72;4948413;28;20035;-76
2021/01/13 01:12:13;;;;;;;12.38;1.77;;;;;;;1.76;88.11;101711.59;4961827;28;20130;-75
2021/01/13 01:14:40;;;;;;;13.98;1.80;;;;;;;1.71;87.48;101707.47;4944614;28;20027;-72
2021/01/13 01:17:09;;;;;;;14.95;2.33;;;;;;;1.66;88.01;101707.69;4946363;28;20031;-76
2021/01/13 01:19:35;;;;;;;9.63;1.70;;;;;;;1.49;88.17;101684.84;4946117;28;20058;-76
2021/01/13 01:22:02;;;;;;;11.50;1.70;;;;;;;1.57;87.99;101708.13;4945438;28;20441;-76
2021/01/13 01:24:27;;;;;;;6.93;1.70;;;;;;;1.71;87.81;101725.91;4930449;29;20027;-79
2021/01/13 01:26:53;;;;;;;12.93;1.77;;;;;;;1.80;87.78;101714.91;4945843;28;20026;-75
2021/01/13 01:29:18;;;;;;;15.25;2.03;;;;;;;1.70;87.94;101687.34;4959810;28;20023;-75
2021/01/13 01:31:48;;;;;;;10.52;1.75;;;;;;;1.89;88.33;101708.34;4947713;28;20031;-72
2021/01/13 01:34:13;;;;;;;11.63;2.17;;;;;;;2.08;88.52;101729.34;4928781;28;20039;-75
2021/01/13 01:36:39;;;;;;;11.98;1.55;;;;;;;2.21;89.03;101729.59;4944823;28;20058;-77
2021/01/13 01:39:04;;;;;;;16.10;2.20;;;;;;;2.34;88.69;101733.31;4947320;28;20030;-76
2021/01/13 01:41:30;;;;;;;14.77;1.75;;;;;;;2.43;88.82;101732.84;4946412;28;20061;-75
2021/01/13 01:43:55;;;;;;;11.95;1.50;;;;;;;2.51;88.95;101721.09;4950113;28;20544;-75
2021/01/13 01:46:21;;;;;;;7.47;1.60;;;;;;;2.45;88.93;101698.50;4945317;28;20109;-75
2021/01/13 01:48:50;;;;;;;11.73;1.88;;;;;;;2.64;88.71;101722.16;4923612;29;20040;-75
2021/01/13 01:51:25;;;;;;;8.15;1.20;;;;;;;2.58;89.47;101723.28;4936697;28;20051;-75
2021/01/13 01:54:04;;;;;;;11.43;1.38;;;;;;;2.55;89.47;101717.34;4947835;28;20497;-75
2021/01/13 01:56:37;;;;;;;9.45;1.50;;;;;;;2.49;89.91;101722.94;4944740;28;20043;-72
2021/01/13 01:59:12;;;;;;;7.25;1.35;;;;;;;2.48;89.91;101721.22;4938853;28;20079;-77
2021/01/13 02:01:38;;;;;;;9.35;0.93;;;;;;;2.48;89.69;101726.50;4946557;28;20031;-76
2021/01/13 02:04:19;;;;;;;8.95;1.23;;;;;;;2.45;89.70;101735.41;4943714;28;20891;-76
2021/01/13 02:06:51;;;;;;;10.57;1.38;;;;;;;2.43;89.88;101735.50;4933928;28;20114;-76
2021/01/13 02:09:16;;;;;;;5.85;0.90;;;;;;;2.39;90.29;101738.34;4947291;28;20054;-73
2021/01/13 02:11:44;;;;;;;8.90;1.40;;;;;;;2.36;90.34;101735.88;4944508;28;20494;-73
2021/01/13 02:14:12;;;;;;;9.80;1.50;;;;;;;2.06;90.51;101702.25;4941063;28;20031;-78
2021/01/13 02:16:37;;;;;;;10.13;1.25;;;;;;;2.31;90.76;101738.75;4941996;28;20129;-77
2021/01/13 02:19:03;;;;;;;11.73;1.60;;;;;;;2.22;91.52;101739.22;4956788;28;20088;-73
2021/01/13 02:21:31;;;;;;;6.53;1.20;;;;;;;2.26;91.33;101751.28;4926253;28;20554;-76
2021/01/13 02:24:08;;;;;;;10.98;1.48;;;;;;;2.37;90.99;101754.25;4945280;28;20114;-76
2021/01/13 02:27:11;;;;;;;12.20;1.90;;;;;;;2.44;90.38;101753.00;4945346;28;20039;-76
2021/01/13 02:29:37;;;;;;;9.27;1.40;;;;;;;2.50;90.35;101745.72;4946968;28;20165;-76
2021/01/13 02:32:17;;;;;;;7.03;1.40;;;;;;;2.49;89.84;101725.56;4948524;28;20103;-76
2021/01/13 02:34:42;;;;;;;8.98;1.73;;;;;;;2.69;90.12;101748.25;4944075;28;20035;-74
2021/01/13 02:37:26;;;;;;;6.63;1.30;;;;;;;2.74;89.66;101739.19;4945087;28;20138;-74
2021/01/13 02:39:52;;;;;;;12.45;1.40;;;;;;;2.80;89.75;101747.69;4945243;28;20921;-76
2021/01/13 02:42:21;;;;;;;13.40;2.22;;;;;;;2.87;89.42;101749.09;4919461;29;20778;-76
2021/01/13 02:45:09;;;;;;;14.18;2.08;;;;;;;2.93;88.86;101753.19;4942843;28;20031;-76
2021/01/13 02:47:56;;;;;;;15.07;1.95;;;;;;;2.97;88.28;101763.47;4945390;28;20027;-73
2021/01/13 02:50:29;;;;;;;15.00;2.33;;;;;;;3.05;88.63;101765.72;4939594;28;20114;-73
2021/01/13 02:53:09;;;;;;;11.07;1.60;;;;;;;3.06;88.69;101768.25;4940022;28;20036;-73
2021/01/13 02:55:47;;;;;;;10.18;1.70;;;;;;;3.08;88.25;101756.78;4944571;28;20039;-73
2021/01/13 02:58:15;;;;;;;9.38;1.33;;;;;;;3.05;88.23;101760.44;4945570;28;20088;-73
2021/01/13 03:00:40;;;;;;;11.33;1.80;;;;;;;2.98;88.35;101761.72;4924663;29;20030;-76
2021/01/13 03:03:06;;;;;;;7.63;1.50;;;;;;;2.92;88.26;101762.84;4943564;28;20035;-73
2021/01/13 03:05:32;;;;;;;16.17;1.65;;;;;;;2.84;89.27;101765.06;4939928;28;20043;-76
2021/01/13 03:07:59;;;;;;;12.60;1.95;;;;;;;2.79;89.31;101757.38;4944302;28;20039;-76
2021/01/13 03:10:26;;;;;;;12.45;1.70;;;;;;;2.38;90.22;101705.88;4926769;28;20035;-77
2021/01/13 03:12:58;;;;;;;14.57;2.63;;;;;;;2.58;90.75;101746.19;4939444;28;20039;-73
2021/01/13 03:15:24;;;;;;;13.77;2.60;;;;;;;2.68;91.30;101765.84;4939062;28;20035;-76
2021/01/13 03:17:58;;;;;;;10.55;1.90;;;;;;;2.74;91.18;101765.53;4926441;28;20520;-76
2021/01/13 03:20:30;;;;;;;9.13;1.65;;;;;;;2.82;91.32;101774.81;4960032;28;20037;-76
2021/01/13 03:23:14;;;;;;;16.02;2.65;;;;;;;2.91;91.17;101771.72;4958456;28;20027;-76
2021/01/13 03:25:53;;;;;;;12.98;1.83;;;;;;;2.97;90.96;101765.28;4945499;28;20130;-76
2021/01/13 03:28:23;;;;;;;11.38;1.90;;;;;;;3.04;90.50;101770.16;4945860;28;20562;-76
2021/01/13 03:30:49;;;;;;;11.35;2.40;;;;;;;3.11;90.54;101761.91;4947153;28;20031;-76
2021/01/13 03:33:41;;;;;;;15.52;2.50;;;;;;;3.18;89.77;101760.66;4946308;28;20116;-76
2021/01/13 03:36:14;;;;;;;13.50;2.08;;;;;;;3.18;90.06;101761.47;4924934;28;20043;-73
2021/01/13 03:39:08;;;;;;;14.30;1.88;;;;;;;3.20;90.38;101759.63;4956133;28;20122;-76
2021/01/13 03:41:48;;;;;;;17.45;2.33;;;;;;;3.20;90.59;101761.38;4954162;28;20039;-76
2021/01/13 03:44:13;;;;;;;13.70;2.00;;;;;;;3.17;91.04;101762.41;4946433;28;20039;-76
2021/01/13 03:46:39;;;;;;;20.98;2.63;;;;;;;2.98;90.83;101730.91;4926219;29;20817;-76
2021/01/13 03:49:05;;;;;;;15.20;2.25;;;;;;;3.26;91.08;101766.34;4945963;28;20084;-76
2021/01/13 03:52:04;;;;;;;14.77;2.70;;;;;;;3.25;90.76;101767.28;4923641;28;604331;-77
2021/01/13 03:54:34;;;;;;;15.27;2.17;;;;;;;3.11;90.45;101735.53;4940411;28;20044;-76
2021/01/13 03:57:07;;;;;;;14.05;2.33;;;;;;;3.22;90.55;101755.13;4938605;28;20039;-76
2021/01/13 03:59:37;;;;;;;13.40;2.33;;;;;;;3.17;90.64;101753.66;4940192;28;20066;-77
2021/01/13 04:02:02;;;;;;;14.10;2.45;;;;;;;2.84;90.89;101707.91;4939159;28;20042;-77
2021/01/13 04:04:43;;;;;;;21.58;2.33;;;;;;;3.11;90.75;101753.97;4918688;28;20035;-77
2021/01/13 04:07:09;;;;;;;11.90;2.08;;;;;;;3.05;91.05;101765.72;4932652;28;20093;-73
2021/01/13 04:09:34;;;;;;;13.20;2.17;;;;;;;3.01;90.65;101757.13;4939711;28;20034;-76
2021/01/13 04:12:25;;;;;;;21.85;3.03;;;;;;;2.77;90.63;101713.59;4934373;28;20065;-76
2021/01/13 04:14:55;;;;;;;19.20;3.15;;;;;;;2.96;89.85;101751.22;4906167;29;20104;-77
2021/01/13 04:17:21;;;;;;;19.65;2.83;;;;;;;2.92;90.13;101749.66;4939637;28;20038;-76
2021/01/13 04:19:47;;;;;;;18.52;2.50;;;;;;;2.87;89.83;101755.19;4933052;28;20480;-76
2021/01/13 04:22:13;;;;;;;13.18;2.60;;;;;;;2.83;89.66;101756.31;4941002;28;20047;-76
2021/01/13 04:24:42;;;;;;;12.40;3.05;;;;;;;2.83;89.39;101747.53;4936322;28;20038;-77
2021/01/13 04:27:10;;;;;;;20.88;2.92;;;;;;;2.83;88.95;101745.75;4939370;28;20027;-77
2021/01/13 04:29:36;;;;;;;17.73;2.47;;;;;;;2.80;88.49;101740.66;4919912;29;21898;-77
2021/01/13 04:32:01;;;;;;;16.52;2.65;;;;;;;2.77;87.55;101742.59;4943505;28;20035;-76
2021/01/13 04:34:27;;;;;;;14.98;1.92;;;;;;;2.78;88.15;101746.94;4939990;28;20117;-77
2021/01/13 04:36:52;;;;;;;20.63;2.97;;;;;;;2.79;87.72;101738.06;4953138;28;20449;-77
2021/01/13 04:39:18;;;;;;;16.00;2.83;;;;;;;2.77;87.69;101732.88;4933244;28;20027;-76
2021/01/13 04:42:07;;;;;;;13.70;2.85;;;;;;;2.75;87.37;101732.97;4940253;28;20394;-76
2021/01/13 04:44:45;;;;;;;13.35;2.33;;;;;;;2.72;87.14;101727.88;4935629;28;20124;-76
2021/01/13 04:47:11;;;;;;;15.70;3.00;;;;;;;2.74;87.56;101733.03;4923925;28;20015;-76
2021/01/13 04:49:37;;;;;;;15.85;2.55;;;;;;;2.64;87.16;101718.66;4930880;28;20490;-77
2021/01/13 04:52:05;;;;;;;16.23;2.30;;;;;;;2.77;86.88;101738.16;4936747;28;20069;-77
2021/01/13 04:54:30;;;;;;;21.20;2.70;;;;;;;2.80;86.71;101734.50;4916332;28;20042;-76
2021/01/13 04:57:35;;;;;;;18.58;2.60;;;;;;;2.80;86.13;101732.72;4939101;28;20035;-76
2021/01/13 05:00:06;;;;;;;21.80;2.65;;;;;;;2.79;85.64;101731.03;4933768;28;20165;-76
2021/01/13 05:02:42;;;;;;;7.53;1.90;;;;;;;2.76;85.75;101728.53;4940561;28;20093;-76
2021/01/13 05:05:08;;;;;;;6.38;1.90;;;;;;;2.42;85.90;101681.09;4954205;28;20037;-76
2021/01/13 05:07:40;;;;;;;15.13;2.05;;;;;;;2.71;85.38;101720.88;4939143;28;20403;-76
2021/01/13 05:10:14;;;;;;;16.15;2.22;;;;;;;2.70;84.87;101710.44;4949633;28;20104;-76
2021/01/13 05:12:56;;;;;;;12.75;2.20;;;;;;;2.11;84.23;101608.06;4931816;28;20066;-76
2021/01/13 05:15:26;;;;;;;10.40;1.83;;;;;;;2.72;84.19;101711.19;4933812;28;20078;-73
2021/01/13 05:18:07;;;;;;;12.98;2.17;;;;;;;2.67;84.75;101719.34;4936725;28;20043;-73
2021/01/13 05:20:37;;;;;;;13.85;2.38;;;;;;;2.70;84.68;101716.53;4951158;28;20035;-73
2021/01/13 05:23:03;;;;;;;17.05;2.10;;;;;;;2.58;84.28;101693.47;4936653;28;20054;-73
2021/01/13 05:25:42;;;;;;;14.35;2.55;;;;;;;2.71;84.20;101712.97;4933199;28;20526;-73
2021/01/13 05:28:08;;;;;;;12.43;2.10;;;;;;;2.73;84.14;101708.47;4952634;28;20118;-76
2021/01/13 05:30:41;;;;;;;12.63;2.28;;;;;;;2.59;83.90;101682.00;4939464;28;20118;-76
2021/01/13 05:33:12;;;;;;;14.45;2.53;;;;;;;2.79;83.59;101706.44;4934874;28;20062;-73
2021/01/13 05:35:40;;;;;;;9.82;2.50;;;;;;;2.82;83.37;101706.28;4935168;28;20170;-73
2021/01/13 05:38:07;;;;;;;16.40;2.83;;;;;;;2.81;83.78;101710.72;4939044;28;20035;-73
2021/01/13 05:40:39;;;;;;;12.52;1.95;;;;;;;2.79;83.36;101709.94;4940597;28;20126;-73
2021/01/13 05:43:05;;;;;;;12.25;3.28;;;;;;;2.01;83.23;101575.25;4931933;28;20069;-73
2021/01/13 05:45:30;;;;;;;15.68;5.20;;;;;;;1.88;83.69;101554.84;4936907;28;20458;-73
2021/01/13 05:47:56;;;;;;;17.85;3.78;;;;;;;2.83;83.46;101710.63;4954479;28;20046;-76
2021/01/13 05:50:23;;;;;;;14.80;3.03;;;;;;;2.87;82.70;101710.38;4914804;28;20065;-77
2021/01/13 05:52:50;;;;;;;12.40;2.30;;;;;;;2.88;82.70;101719.16;4935578;28;20347;-76
2021/01/13 05:55:16;;;;;;;7.63;1.77;;;;;;;2.84;82.84;101712.31;4938560;28;20043;-76
2021/01/13 05:57:58;;;;;;;13.90;2.10;;;;;;;2.82;83.20;101712.41;4935752;28;20131;-73
2021/01/13 06:00:27;;;;;;;12.60;2.47;;;;;;;2.79;82.70;101704.66;4929807;28;20047;-76
2021/01/13 06:03:03;;;;;;;9.40;1.92;;;;;;;1.62;82.61;101506.16;4941472;28;20034;-76
2021/01/13 06:05:30;;;;;;;14.13;2.00;;;;;;;2.70;82.59;101692.81;4935843;28;20103;-76
2021/01/13 06:07:57;;;;;;;16.95;2.38;;;;;;;2.56;82.47;101668.97;4928145;28;20113;-76
2021/01/13 06:10:28;;;;;;;12.93;2.60;;;;;;;2.82;83.02;101706.28;4935227;28;20023;-76
2021/01/13 06:12:57;;;;;;;8.57;2.08;;;;;;;2.70;82.70;101686.72;4953846;28;20058;-76
2021/01/13 06:15:23;;;;;;;13.73;2.38;;;;;;;2.62;82.65;101673.94;4943654;28;20034;-76
2021/01/13 06:17:50;;;;;;;18.15;2.17;;;;;;;2.78;82.72;101697.69;4940825;29;20073;-76
2021/01/13 06:20:26;;;;;;;10.52;1.80;;;;;;;2.79;83.60;101699.41;4924584;29;20035;-76
2021/01/13 06:22:52;;;;;;;9.88;2.50;;;;;;;2.77;83.22;101695.16;4932508;28;20035;-73
2021/01/13 06:25:22;;;;;;;18.85;1.90;;;;;;;2.71;83.18;101680.50;4921183;29;20038;-76
2021/01/13 06:27:56;;;;;;;10.68;1.98;;;;;;;2.82;82.94;101703.63;4942575;28;20213;-76
2021/01/13 06:30:26;;;;;;;12.73;2.20;;;;;;;2.80;83.15;101703.72;4940027;28;20035;-77
2021/01/13 06:33:01;;;;;;;10.23;1.85;;;;;;;2.79;83.14;101701.16;4952345;28;20038;-76
2021/01/13 06:35:42;;;;;;;14.40;2.10;;;;;;;2.80;83.30;101694.97;4935500;28;20035;-76
2021/01/13 06:38:09;;;;;;;9.55;2.03;;;;;;;2.69;83.12;101675.31;4945219;28;20609;-73
2021/01/13 06:40:35;;;;;;;16.95;2.60;;;;;;;2.75;84.30;101693.44;4937246;28;20056;-73
2021/01/13 06:43:10;;;;;;;11.52;2.25;;;;;;;2.78;83.71;101688.94;4939334;28;20415;-73
2021/01/13 06:45:36;;;;;;;15.23;2.40;;;;;;;2.79;83.34;101686.22;4938219;28;20188;-74
2021/01/13 06:48:01;;;;;;;14.52;2.45;;;;;;;2.79;83.19;101695.88;4940918;28;20143;-77
2021/01/13 06:50:31;;;;;;;16.48;2.25;;;;;;;2.80;83.30;101684.41;4958176;28;20138;-76
2021/01/13 06:52:57;;;;;;;10.73;2.10;;;;;;;2.81;83.34;101686.13;4944855;28;20047;-76
2021/01/13 06:55:30;;;;;;;14.25;1.70;;;;;;;2.85;82.83;101688.50;4945631;28;20110;-76
2021/01/13 06:57:56;;;;;;;11.52;3.15;;;;;;;2.74;82.37;101667.16;4931813;28;20197;-76
2021/01/13 07:00:22;;;;;;;13.52;2.30;;;;;;;2.86;83.05;101684.09;4907387;29;20031;-75
2021/01/13 07:02:47;;;;;;;9.70;2.30;;;;;;;2.63;82.58;101645.78;4940300;28;20039;-76
2021/01/13 07:05:13;;;;;;;13.02;2.45;;;;;;;2.83;82.32;101668.44;4941082;28;20122;-76
2021/01/13 07:07:41;;;;;;;10.18;2.08;;;;;;;2.84;83.18;101680.69;4917202;29;20110;-76
2021/01/13 07:10:09;;;;;;;12.10;2.13;;;;;;;2.87;82.81;101683.16;4940726;28;20187;-76
2021/01/13 07:12:35;;;;;;;13.73;2.33;;;;;;;2.84;83.11;101678.91;4924437;28;20043;-75
2021/01/13 07:15:00;;;;;;;11.55;2.22;;;;;;;2.89;82.68;101684.78;4928903;29;20126;-76
2021/01/13 07:17:26;;;;;;;9.23;1.90;;;;;;;2.82;82.87;101658.81;4917575;29;20513;-74
2021/01/13 07:19:52;;;;;;;20.38;2.47;;;;;;;2.91;83.27;101682.91;4943043;28;20308;-72
2021/01/13 07:22:19;;;;;;;15.45;2.10;;;;;;;2.90;82.73;101681.22;4947241;28;20031;-72
2021/01/13 07:24:45;;;;;;;11.52;2.20;;;;;;;2.91;83.05;101677.66;4944113;28;20344;-72
2021/01/13 07:27:11;;;;;;;12.25;2.50;;;;;;;2.90;82.93;101675.09;4957704;28;20122;-72
2021/01/13 07:29:37;;;;;;;14.05;2.50;;;;;;;2.87;82.91;101681.38;4955813;28;20163;-72
2021/01/13 07:32:03;;;;;;;11.55;2.03;;;;;;;2.92;82.29;101683.75;4938082;28;20065;-72
2021/01/13 07:34:42;;;;;;;10.55;1.88;;;;;;;2.91;82.62;101688.19;4936115;28;20036;-73
2021/01/13 07:37:20;;;;;;;12.35;2.50;;;;;;;2.88;83.30;101687.50;4940590;28;20478;-74
2021/01/13 07:40:10;;;;;;;21.52;3.60;;;;;;;2.93;83.09;101689.91;4937817;28;20035;-74
2021/01/13 07:42:45;;;;;;;11.60;2.63;;;;;;;2.87;83.48;101670.81;4939783;28;20031;-75
2021/01/13 07:45:16;;;;;;;12.70;2.28;;;;;;;2.87;83.02;101688.44;4933889;28;20031;-76
2021/01/13 07:47:56;;;;;;;10.80;2.20;;;;;;;2.93;83.27;101687.25;4942544;28;20030;-75
2021/01/13 07:50:23;;;;;;;14.40;3.22;;;;;;;2.81;82.94;101668.53;4942093;28;20527;-75
2021/01/13 07:52:50;;;;;;;22.63;2.65;;;;;;;2.04;82.51;101538.22;4942037;29;20049;-76
2021/01/13 07:55:16;;;;;;;13.10;2.53;;;;;;;2.96;82.29;101677.38;4942562;28;20035;-75
2021/01/13 07:57:52;;;;;;;8.52;3.33;;;;;;;2.82;82.43;101656.19;4950271;28;20035;-76
2021/01/13 08:00:27;;;;;;;13.93;2.58;;;;;;;3.07;81.86;101682.09;4942716;29;20034;-75
2021/01/13 08:03:17;;;;;;;14.93;2.83;;;;;;;3.06;82.43;101685.66;4947106;28;20545;-74
2021/01/13 08:06:14;;;;;;;16.00;2.90;;;;;;;3.09;82.17;101696.06;4944952;28;20034;-74
2021/01/13 08:09:13;;;;;;;17.10;2.60;;;;;;;3.12;82.10;101697.66;4949097;28;20870;-75
2021/01/13 08:12:03;;;;;;;17.13;2.47;;;;;;;3.14;82.75;101693.16;4929614;29;20039;-76
2021/01/13 08:14:54;;;;;;;13.57;2.78;;;;;;;3.16;81.97;101697.41;4939658;28;20494;-76
2021/01/13 08:17:46;;;;;;;11.48;2.33;;;;;;;3.18;81.39;101679.72;4948143;28;20102;-76
2021/01/13 08:20:31;;;;;;;18.88;2.42;;;;;;;3.28;81.03;101682.69;4947029;28;20051;-76
2021/01/13 08:23:01;;;;;;;17.48;3.13;;;;;;;3.27;81.10;101682.75;4946165;28;20515;-76
2021/01/13 08:25:27;;;;;;;14.75;2.33;;;;;;;3.34;81.01;101687.63;4949010;28;20497;-77
2021/01/13 08:27:57;;;;;;;12.55;2.20;;;;;;;3.27;81.03;101659.88;4940216;28;20030;-78
2021/01/13 08:30:27;;;;;;;13.20;2.47;;;;;;;3.40;81.00;101683.78;4940899;28;20631;-75
2021/01/13 08:32:57;;;;;;;19.02;2.65;;;;;;;3.15;80.61;101631.56;4945633;28;20086;-75
2021/01/13 08:35:33;;;;;;;13.82;3.17;;;;;;;3.46;81.16;101677.34;4935747;28;20039;-75
2021/01/13 08:38:06;;;;;;;12.50;2.63;;;;;;;3.01;80.79;101593.63;4943239;28;20344;-75
2021/01/13 08:40:32;;;;;;;14.27;2.67;;;;;;;3.32;80.01;101636.75;4950084;28;20031;-74
2021/01/13 08:43:09;;;;;;;17.25;3.10;;;;;;;3.42;79.64;101644.13;4921312;28;20552;-74
2021/01/13 08:45:37;;;;;;;14.77;2.97;;;;;;;3.64;80.01;101671.00;4927616;29;20023;-74
2021/01/13 08:48:09;;;;;;;19.27;2.90;;;;;;;3.60;80.02;101677.38;4940814;28;20279;-74
2021/01/13 08:50:35;;;;;;;17.67;2.75;;;;;;;3.63;80.71;101681.66;4938157;28;20118;-74
2021/01/13 08:53:04;;;;;;;11.98;2.28;;;;;;;3.70;80.53;101677.72;4941711;28;20110;-74
2021/01/13 08:55:30;;;;;;;19.73;3.10;;;;;;;3.78;79.43;101680.78;4942103;28;20536;-74
2021/01/13 08:58:22;;;;;;;17.40;2.67;;;;;;;3.58;79.46;101634.41;4937459;28;20034;-75
2021/01/13 09:00:48;;;;;;;15.15;2.97;;;;;;;3.90;79.78;101660.72;4939445;29;20035;-74
2021/01/13 09:03:35;;;;;;;17.73;2.90;;;;;;;4.02;78.25;101660.94;4909939;29;20598;-74
2021/01/13 09:06:37;;;;;;;16.48;2.58;;;;;;;4.05;78.28;101668.69;4940296;28;20054;-74
2021/01/13 09:09:10;;;;;;;18.27;2.95;;;;;;;4.07;78.70;101672.94;4939432;28;20110;-74
2021/01/13 09:11:37;;;;;;;15.10;2.75;;;;;;;3.98;78.47;101645.28;4941260;28;20031;-74
2021/01/13 09:14:21;;;;;;;13.68;2.67;;;;;;;4.13;77.42;101648.81;4954876;28;20090;-74
2021/01/13 09:16:54;;;;;;;13.63;2.60;;;;;;;4.22;77.91;101651.81;4915039;29;20031;-75
2021/01/13 09:19:36;;;;;;;10.80;2.25;;;;;;;4.26;78.12;101654.22;4925521;29;20664;-74
2021/01/13 09:22:07;;;;;;;14.82;3.33;;;;;;;4.37;77.88;101679.16;4938565;28;20019;-75
2021/01/13 09:24:51;;;;;;;12.43;3.17;;;;;;;4.41;77.29;101670.09;4941701;28;20086;-75
2021/01/13 09:27:18;;;;;;;13.40;2.50;;;;;;;4.44;78.00;101662.81;4939736;28;20446;-75
2021/01/13 09:29:50;;;;;;;11.07;2.78;;;;;;;4.49;77.71;101667.81;4942036;28;20477;-75
2021/01/13 09:32:16;;;;;;;15.57;2.58;;;;;;;4.63;76.60;101682.84;4944342;28;20039;-75
2021/01/13 09:34:42;;;;;;;13.60;2.65;;;;;;;4.70;76.10;101668.31;4925457;29;20526;-74
2021/01/13 09:37:08;;;;;;;16.52;3.17;;;;;;;4.44;76.53;101632.88;4943546;28;20083;-75
2021/01/13 09:39:38;;;;;;;12.13;2.65;;;;;;;4.77;75.79;101668.78;4940071;28;20066;-75
2021/01/13 09:42:04;;;;;;;11.90;2.33;;;;;;;4.79;75.74;101669.53;4954485;28;20027;-75
2021/01/13 09:44:31;;;;;;;13.30;2.63;;;;;;;4.78;76.40;101678.41;4911717;29;20074;-74
2021/01/13 09:46:57;;;;;;;16.63;2.72;;;;;;;4.83;75.50;101673.69;4943341;28;20214;-72
2021/01/13 09:49:23;;;;;;;10.55;2.78;;;;;;;4.71;75.50;101671.78;4937048;28;20027;-75
2021/01/13 09:51:49;;;;;;;12.27;2.33;;;;;;;4.64;75.55;101666.03;4914228;29;20050;-74
2021/01/13 09:54:14;;;;;;;14.18;2.78;;;;;;;4.50;76.97;101674.81;4943285;28;20102;-72
2021/01/13 09:56:40;;;;;;;10.93;2.70;;;;;;;4.43;76.70;101673.47;4921488;29;20528;-72
2021/01/13 09:59:07;;;;;;;13.82;2.50;;;;;;;4.34;76.75;101652.91;4942449;28;20577;-73
2021/01/13 10:01:36;;;;;;;14.60;2.75;;;;;;;4.42;77.40;101675.28;4950599;28;20031;-73
2021/01/13 10:04:08;;;;;;;18.77;3.03;;;;;;;4.09;76.82;101625.31;4940898;28;20483;-74
2021/01/13 10:06:33;;;;;;;10.02;2.88;;;;;;;4.32;78.06;101674.16;4936714;28;20544;-73
2021/01/13 10:09:03;;;;;;;12.00;2.35;;;;;;;4.30;78.55;101670.75;4924015;29;20047;-73
2021/01/13 10:11:30;;;;;;;9.88;2.42;;;;;;;4.37;77.79;101673.84;4925946;28;20497;-75
2021/01/13 10:14:00;;;;;;;10.05;2.15;;;;;;;4.12;77.99;101627.78;4938164;28;20490;-75
2021/01/13 10:16:26;;;;;;;8.57;2.30;;;;;;;4.52;77.20;101680.00;4953763;28;20034;-75
2021/01/13 10:18:52;;;;;;;14.15;2.13;;;;;;;4.61;78.07;101687.41;4937071;28;20039;-75
2021/01/13 10:21:17;;;;;;;10.95;2.50;;;;;;;4.60;77.36;101652.16;4936734;28;20528;-75
2021/01/13 10:23:44;;;;;;;9.50;2.05;;;;;;;4.72;76.63;101649.69;4933637;28;20955;-75
2021/01/13 10:26:09;;;;;;;8.57;1.70;;;;;;;4.95;76.04;101674.72;4927379;28;20027;-75
2021/01/13 10:28:35;;;;;;;17.83;2.28;;;;;;;4.30;75.70;101562.41;4937660;28;20086;-75
2021/01/13 10:31:01;;;;;;;10.57;2.33;;;;;;;4.67;76.68;101635.94;4917929;29;20027;-75
2021/01/13 10:33:47;;;;;;;12.68;2.35;;;;;;;4.91;77.07;101683.78;4935860;28;20047;-75
2021/01/13 10:36:36;;;;;;;20.88;2.65;;;;;;;4.38;76.92;101580.41;4946615;28;20035;-75
2021/01/13 10:39:01;;;;;;;11.13;2.53;;;;;;;5.03;76.19;101676.88;4937645;28;20669;-75
2021/01/13 10:41:41;;;;;;;17.45;3.03;;;;;;;4.77;75.63;101623.81;4938957;28;20435;-75
2021/01/13 10:44:07;;;;;;;14.73;3.08;;;;;;;5.00;76.49;101671.78;4933658;28;20360;-75
2021/01/13 10:46:45;;;;;;;10.35;2.00;;;;;;;5.05;76.07;101682.94;4933532;28;20588;-75
2021/01/13 10:49:22;;;;;;;10.65;2.80;;;;;;;4.79;75.48;101619.28;4937015;28;20170;-75
2021/01/13 10:51:56;;;;;;;6.53;1.90;;;;;;;5.25;75.55;101671.09;4956601;28;20047;-75
2021/01/13 10:54:29;;;;;;;16.23;2.40;;;;;;;5.34;74.89;101672.31;4937810;28;20149;-75
2021/01/13 10:56:57;;;;;;;11.52;2.30;;;;;;;5.33;73.51;101666.13;4920239;28;20146;-75
2021/01/13 10:59:23;;;;;;;13.48;2.83;;;;;;;5.29;74.04;101664.66;4943626;28;20031;-75
2021/01/13 11:02:08;;;;;;;10.68;2.22;;;;;;;5.29;73.76;101664.66;4952746;28;20058;-75
2021/01/13 11:04:35;;;;;;;10.10;2.88;;;;;;;5.26;73.02;101659.56;4944014;28;20027;-76
2021/01/13 11:07:07;;;;;;;6.95;2.10;;;;;;;5.19;74.16;101660.88;4937289;28;20011;-76
2021/01/13 11:09:34;;;;;;;13.05;2.00;;;;;;;5.19;73.67;101661.75;4939962;28;20589;-76
2021/01/13 11:11:59;;;;;;;10.75;2.42;;;;;;;5.14;73.60;101652.41;4937060;28;20042;-75
2021/01/13 11:14:28;;;;;;;13.38;2.40;;;;;;;5.10;73.21;101654.38;4936150;28;20035;-76
2021/01/13 11:17:04;;;;;;;8.50;2.20;;;;;;;5.09;72.56;101650.03;4935130;28;20031;-75
2021/01/13 11:19:30;;;;;;;16.80;2.72;;;;;;;5.08;71.36;101648.34;4943306;28;20102;-76
2021/01/13 11:21:56;;;;;;;11.73;3.05;;;;;;;5.08;71.47;101640.41;4943084;28;20035;-76
2021/01/13 11:24:39;;;;;;;14.15;2.38;;;;;;;5.01;72.39;101641.72;4943862;28;20043;-74
2021/01/13 11:27:09;;;;;;;9.70;2.20;;;;;;;4.82;72.61;101608.50;4943146;28;20074;-75
2021/01/13 11:29:37;;;;;;;14.75;2.30;;;;;;;4.97;72.87;101643.72;4944902;28;20102;-74
2021/01/13 11:32:03;;;;;;;17.60;2.40;;;;;;;4.64;72.77;101585.88;4948999;28;20034;-76
2021/01/13 11:34:29;;;;;;;13.27;2.20;;;;;;;5.08;72.95;101637.78;4927269;29;20123;-78
2021/01/13 11:37:13;;;;;;;12.90;2.63;;;;;;;5.17;71.71;101638.94;4959246;28;20486;-77
2021/01/13 11:40:15;;;;;;;10.32;2.13;;;;;;;5.26;70.58;101629.56;4931276;28;20049;-77
2021/01/13 11:42:48;;;;;;;11.35;2.15;;;;;;;5.25;69.85;101620.81;4944910;28;20673;-77
2021/01/13 11:45:14;;;;;;;9.77;2.30;;;;;;;5.25;69.09;101630.53;4945116;28;20050;-73